sensor_id;sensor_type;location;lat;lon;timestamp;P1;durP1;ratioP1;P2;durP2;ratioP2
84763;SDS011;74992;51.072;6.088;2024-01-25T00:00:31;29.27;;;6.90;;
84763;SDS011;74992;51.072;6.088;2024-01-25T00:03:40;32.13;;;4.95;;
84763;SDS011;74992;51.072;6.088;2024-01-25T00:06:43;29.90;;;5.63;;
84763;SDS011;74992;51.072;6.088;2024-01-25T00:09:52;29.77;;;5.93;;
84763;SDS011;74992;51.072;6.088;2024-01-25T00:13:12;35.10;;;6.28;;
84763;SDS011;74992;51.072;6.088;2024-01-25T00:16:20;35.10;;;6.65;;
84763;SDS011;74992;51.072;6.088;2024-01-25T00:19:28;41.00;;;5.90;;
84763;SDS011;74992;51.072;6.088;2024-01-25T00:22:38;33.75;;;5.93;;
84763;SDS011;74992;51.072;6.088;2024-01-25T00:25:47;31.63;;;5.55;;
84763;SDS011;74992;51.072;6.088;2024-01-25T00:29:04;36.10;;;6.35;;
84763;SDS011;74992;51.072;6.088;2024-01-25T00:32:09;36.10;;;5.32;;
84763;SDS011;74992;51.072;6.088;2024-01-25T00:35:15;37.00;;;6.68;;
84763;SDS011;74992;51.072;6.088;2024-01-25T00:38:34;32.08;;;5.80;;
84763;SDS011;74992;51.072;6.088;2024-01-25T00:41:37;30.27;;;6.00;;
84763;SDS011;74992;51.072;6.088;2024-01-25T00:44:43;35.00;;;5.55;;
84763;SDS011;74992;51.072;6.088;2024-01-25T00:47:45;28.33;;;6.13;;
84763;SDS011;74992;51.072;6.088;2024-01-25T00:51:14;35.70;;;6.53;;
84763;SDS011;74992;51.072;6.088;2024-01-25T00:54:25;30.60;;;4.93;;
84763;SDS011;74992;51.072;6.088;2024-01-25T00:57:37;36.88;;;6.10;;
84763;SDS011;74992;51.072;6.088;2024-01-25T01:00:54;41.28;;;6.65;;
84763;SDS011;74992;51.072;6.088;2024-01-25T01:03:58;29.35;;;5.40;;
84763;SDS011;74992;51.072;6.088;2024-01-25T01:07:26;35.67;;;7.43;;
84763;SDS011;74992;51.072;6.088;2024-01-25T01:10:43;36.88;;;6.78;;
84763;SDS011;74992;51.072;6.088;2024-01-25T01:14:01;30.52;;;5.63;;
84763;SDS011;74992;51.072;6.088;2024-01-25T01:17:20;35.70;;;5.50;;
84763;SDS011;74992;51.072;6.088;2024-01-25T01:20:36;34.38;;;6.60;;
84763;SDS011;74992;51.072;6.088;2024-01-25T01:24:01;29.15;;;5.68;;
84763;SDS011;74992;51.072;6.088;2024-01-25T01:27:19;29.20;;;6.15;;
84763;SDS011;74992;51.072;6.088;2024-01-25T01:30:32;36.15;;;5.97;;
84763;SDS011;74992;51.072;6.088;2024-01-25T01:33:43;30.83;;;5.22;;
84763;SDS011;74992;51.072;6.088;2024-01-25T01:37:04;32.95;;;7.15;;
84763;SDS011;74992;51.072;6.088;2024-01-25T01:40:44;36.75;;;6.82;;
84763;SDS011;74992;51.072;6.088;2024-01-25T01:44:18;32.25;;;6.55;;
84763;SDS011;74992;51.072;6.088;2024-01-25T01:47:41;29.48;;;5.13;;
84763;SDS011;74992;51.072;6.088;2024-01-25T01:51:18;27.35;;;6.47;;
84763;SDS011;74992;51.072;6.088;2024-01-25T01:54:35;33.17;;;5.40;;
84763;SDS011;74992;51.072;6.088;2024-01-25T01:57:40;35.67;;;7.25;;
84763;SDS011;74992;51.072;6.088;2024-01-25T02:00:48;38.58;;;7.55;;
84763;SDS011;74992;51.072;6.088;2024-01-25T02:04:08;32.63;;;5.93;;
84763;SDS011;74992;51.072;6.088;2024-01-25T02:07:17;28.45;;;6.38;;
84763;SDS011;74992;51.072;6.088;2024-01-25T02:10:33;35.33;;;6.22;;
84763;SDS011;74992;51.072;6.088;2024-01-25T02:13:39;35.88;;;6.72;;
84763;SDS011;74992;51.072;6.088;2024-01-25T02:17:06;46.78;;;7.03;;
84763;SDS011;74992;51.072;6.088;2024-01-25T02:20:24;37.35;;;6.22;;
84763;SDS011;74992;51.072;6.088;2024-01-25T02:23:40;37.78;;;6.05;;
84763;SDS011;74992;51.072;6.088;2024-01-25T02:27:00;27.88;;;5.82;;
84763;SDS011;74992;51.072;6.088;2024-01-25T02:30:27;25.88;;;5.00;;
84763;SDS011;74992;51.072;6.088;2024-01-25T02:33:46;33.67;;;5.50;;
84763;SDS011;74992;51.072;6.088;2024-01-25T02:37:06;41.67;;;6.50;;
84763;SDS011;74992;51.072;6.088;2024-01-25T02:40:24;30.50;;;5.57;;
84763;SDS011;74992;51.072;6.088;2024-01-25T02:43:45;37.75;;;6.28;;
84763;SDS011;74992;51.072;6.088;2024-01-25T02:46:48;31.75;;;6.53;;
84763;SDS011;74992;51.072;6.088;2024-01-25T02:50:16;29.17;;;5.72;;
84763;SDS011;74992;51.072;6.088;2024-01-25T02:53:23;44.33;;;6.00;;
84763;SDS011;74992;51.072;6.088;2024-01-25T02:56:52;37.30;;;6.88;;
84763;SDS011;74992;51.072;6.088;2024-01-25T03:00:08;28.65;;;5.13;;
84763;SDS011;74992;51.072;6.088;2024-01-25T03:03:32;36.15;;;6.55;;
84763;SDS011;74992;51.072;6.088;2024-01-25T03:06:42;30.20;;;5.97;;
84763;SDS011;74992;51.072;6.088;2024-01-25T03:09:51;38.22;;;6.50;;
84763;SDS011;74992;51.072;6.088;2024-01-25T03:13:06;38.00;;;5.85;;
84763;SDS011;74992;51.072;6.088;2024-01-25T03:16:22;43.60;;;6.07;;
84763;SDS011;74992;51.072;6.088;2024-01-25T03:19:44;33.92;;;7.65;;
84763;SDS011;74992;51.072;6.088;2024-01-25T03:23:02;44.88;;;7.80;;
84763;SDS011;74992;51.072;6.088;2024-01-25T03:26:19;36.15;;;6.35;;
84763;SDS011;74992;51.072;6.088;2024-01-25T03:32:36;45.10;;;6.00;;
84763;SDS011;74992;51.072;6.088;2024-01-25T03:35:54;33.55;;;6.15;;
84763;SDS011;74992;51.072;6.088;2024-01-25T03:39:01;27.63;;;6.25;;
84763;SDS011;74992;51.072;6.088;2024-01-25T03:42:13;30.15;;;5.45;;
84763;SDS011;74992;51.072;6.088;2024-01-25T03:45:29;52.13;;;8.05;;
84763;SDS011;74992;51.072;6.088;2024-01-25T03:48:36;34.90;;;6.05;;
84763;SDS011;74992;51.072;6.088;2024-01-25T03:51:55;34.13;;;4.72;;
84763;SDS011;74992;51.072;6.088;2024-01-25T03:55:00;35.58;;;5.82;;
84763;SDS011;74992;51.072;6.088;2024-01-25T03:58:02;34.97;;;5.78;;
84763;SDS011;74992;51.072;6.088;2024-01-25T04:01:11;36.58;;;6.47;;
84763;SDS011;74992;51.072;6.088;2024-01-25T04:04:28;29.55;;;5.45;;
84763;SDS011;74992;51.072;6.088;2024-01-25T04:07:50;33.38;;;4.90;;
84763;SDS011;74992;51.072;6.088;2024-01-25T04:11:06;36.58;;;5.72;;
84763;SDS011;74992;51.072;6.088;2024-01-25T04:14:23;35.22;;;6.00;;
84763;SDS011;74992;51.072;6.088;2024-01-25T04:17:55;29.30;;;5.82;;
84763;SDS011;74992;51.072;6.088;2024-01-25T04:21:00;40.60;;;6.95;;
84763;SDS011;74992;51.072;6.088;2024-01-25T04:24:02;40.90;;;6.00;;
84763;SDS011;74992;51.072;6.088;2024-01-25T04:27:04;32.88;;;6.35;;
84763;SDS011;74992;51.072;6.088;2024-01-25T04:30:06;31.02;;;6.32;;
84763;SDS011;74992;51.072;6.088;2024-01-25T04:33:08;28.95;;;5.80;;
84763;SDS011;74992;51.072;6.088;2024-01-25T04:36:10;49.50;;;7.25;;
84763;SDS011;74992;51.072;6.088;2024-01-25T04:39:11;36.95;;;6.05;;
84763;SDS011;74992;51.072;6.088;2024-01-25T04:42:12;39.78;;;8.93;;
84763;SDS011;74992;51.072;6.088;2024-01-25T04:45:13;30.48;;;6.10;;
84763;SDS011;74992;51.072;6.088;2024-01-25T04:48:15;38.10;;;6.47;;
84763;SDS011;74992;51.072;6.088;2024-01-25T04:51:17;34.00;;;7.22;;
84763;SDS011;74992;51.072;6.088;2024-01-25T04:54:19;44.08;;;7.03;;
84763;SDS011;74992;51.072;6.088;2024-01-25T04:57:21;33.10;;;5.35;;
84763;SDS011;74992;51.072;6.088;2024-01-25T05:00:22;31.27;;;6.45;;
84763;SDS011;74992;51.072;6.088;2024-01-25T05:03:24;32.05;;;7.78;;
84763;SDS011;74992;51.072;6.088;2024-01-25T05:06:25;25.13;;;6.07;;
84763;SDS011;74992;51.072;6.088;2024-01-25T05:09:26;32.13;;;6.45;;
84763;SDS011;74992;51.072;6.088;2024-01-25T05:12:28;32.20;;;6.30;;
84763;SDS011;74992;51.072;6.088;2024-01-25T05:15:29;44.08;;;7.95;;
84763;SDS011;74992;51.072;6.088;2024-01-25T05:18:30;47.17;;;6.85;;
84763;SDS011;74992;51.072;6.088;2024-01-25T05:21:31;27.88;;;6.32;;
84763;SDS011;74992;51.072;6.088;2024-01-25T05:24:33;39.30;;;6.05;;
84763;SDS011;74992;51.072;6.088;2024-01-25T05:27:35;45.80;;;7.13;;
84763;SDS011;74992;51.072;6.088;2024-01-25T05:30:36;38.10;;;6.85;;
84763;SDS011;74992;51.072;6.088;2024-01-25T05:33:38;32.25;;;7.03;;
84763;SDS011;74992;51.072;6.088;2024-01-25T05:36:42;44.08;;;7.20;;
84763;SDS011;74992;51.072;6.088;2024-01-25T05:39:44;36.83;;;8.15;;
84763;SDS011;74992;51.072;6.088;2024-01-25T05:42:45;29.98;;;6.45;;
84763;SDS011;74992;51.072;6.088;2024-01-25T05:45:46;34.00;;;7.28;;
84763;SDS011;74992;51.072;6.088;2024-01-25T05:48:49;37.30;;;7.72;;
84763;SDS011;74992;51.072;6.088;2024-01-25T05:51:50;31.23;;;7.25;;
84763;SDS011;74992;51.072;6.088;2024-01-25T05:54:51;37.67;;;6.90;;
84763;SDS011;74992;51.072;6.088;2024-01-25T05:57:53;32.45;;;6.45;;
84763;SDS011;74992;51.072;6.088;2024-01-25T06:00:55;26.95;;;6.38;;
84763;SDS011;74992;51.072;6.088;2024-01-25T06:03:56;33.13;;;7.22;;
84763;SDS011;74992;51.072;6.088;2024-01-25T06:06:57;38.00;;;7.00;;
84763;SDS011;74992;51.072;6.088;2024-01-25T06:09:58;46.20;;;7.80;;
84763;SDS011;74992;51.072;6.088;2024-01-25T06:13:00;41.58;;;7.88;;
84763;SDS011;74992;51.072;6.088;2024-01-25T06:16:01;30.30;;;8.50;;
84763;SDS011;74992;51.072;6.088;2024-01-25T06:19:03;35.85;;;8.25;;
84763;SDS011;74992;51.072;6.088;2024-01-25T06:22:04;40.60;;;9.15;;
84763;SDS011;74992;51.072;6.088;2024-01-25T06:25:06;37.85;;;11.23;;
84763;SDS011;74992;51.072;6.088;2024-01-25T06:28:08;31.27;;;11.23;;
84763;SDS011;74992;51.072;6.088;2024-01-25T06:31:10;47.42;;;9.73;;
84763;SDS011;74992;51.072;6.088;2024-01-25T06:34:11;35.83;;;8.95;;
84763;SDS011;74992;51.072;6.088;2024-01-25T06:37:13;28.70;;;7.40;;
84763;SDS011;74992;51.072;6.088;2024-01-25T06:40:16;37.90;;;9.50;;
84763;SDS011;74992;51.072;6.088;2024-01-25T06:43:17;35.58;;;7.20;;
84763;SDS011;74992;51.072;6.088;2024-01-25T06:46:19;32.20;;;8.55;;
84763;SDS011;74992;51.072;6.088;2024-01-25T06:49:20;43.15;;;9.13;;
84763;SDS011;74992;51.072;6.088;2024-01-25T06:52:22;43.65;;;9.07;;
84763;SDS011;74992;51.072;6.088;2024-01-25T06:55:23;35.17;;;7.47;;
84763;SDS011;74992;51.072;6.088;2024-01-25T06:58:25;36.30;;;8.85;;
84763;SDS011;74992;51.072;6.088;2024-01-25T07:01:26;49.88;;;7.85;;
84763;SDS011;74992;51.072;6.088;2024-01-25T07:04:28;38.35;;;8.45;;
84763;SDS011;74992;51.072;6.088;2024-01-25T07:07:29;40.78;;;7.75;;
84763;SDS011;74992;51.072;6.088;2024-01-25T07:10:32;37.20;;;9.75;;
84763;SDS011;74992;51.072;6.088;2024-01-25T07:13:33;36.92;;;9.10;;
84763;SDS011;74992;51.072;6.088;2024-01-25T07:16:34;36.70;;;8.13;;
84763;SDS011;74992;51.072;6.088;2024-01-25T07:19:36;43.80;;;9.20;;
84763;SDS011;74992;51.072;6.088;2024-01-25T07:22:37;44.33;;;8.52;;
84763;SDS011;74992;51.072;6.088;2024-01-25T07:25:39;34.78;;;6.88;;
84763;SDS011;74992;51.072;6.088;2024-01-25T07:28:40;38.55;;;7.03;;
84763;SDS011;74992;51.072;6.088;2024-01-25T07:31:41;25.25;;;7.05;;
84763;SDS011;74992;51.072;6.088;2024-01-25T07:34:43;32.90;;;7.00;;
84763;SDS011;74992;51.072;6.088;2024-01-25T07:37:47;34.83;;;7.45;;
84763;SDS011;74992;51.072;6.088;2024-01-25T07:40:48;35.90;;;9.75;;
84763;SDS011;74992;51.072;6.088;2024-01-25T07:43:49;40.80;;;8.00;;
84763;SDS011;74992;51.072;6.088;2024-01-25T07:46:54;35.50;;;8.10;;
84763;SDS011;74992;51.072;6.088;2024-01-25T07:49:56;41.00;;;8.77;;
84763;SDS011;74992;51.072;6.088;2024-01-25T07:52:57;60.03;;;7.35;;
84763;SDS011;74992;51.072;6.088;2024-01-25T07:56:02;36.75;;;8.70;;
84763;SDS011;74992;51.072;6.088;2024-01-25T07:59:03;45.28;;;9.05;;
84763;SDS011;74992;51.072;6.088;2024-01-25T08:02:04;46.92;;;8.25;;
84763;SDS011;74992;51.072;6.088;2024-01-25T08:05:06;36.58;;;8.80;;
84763;SDS011;74992;51.072;6.088;2024-01-25T08:08:07;37.15;;;7.82;;
84763;SDS011;74992;51.072;6.088;2024-01-25T08:11:08;40.53;;;7.28;;
84763;SDS011;74992;51.072;6.088;2024-01-25T08:14:10;30.85;;;8.85;;
84763;SDS011;74992;51.072;6.088;2024-01-25T08:17:11;32.75;;;8.75;;
84763;SDS011;74992;51.072;6.088;2024-01-25T08:20:12;40.10;;;8.65;;
84763;SDS011;74992;51.072;6.088;2024-01-25T08:23:14;41.83;;;10.40;;
84763;SDS011;74992;51.072;6.088;2024-01-25T08:26:16;43.22;;;9.60;;
84763;SDS011;74992;51.072;6.088;2024-01-25T08:29:17;29.65;;;7.60;;
84763;SDS011;74992;51.072;6.088;2024-01-25T08:32:18;35.00;;;7.15;;
84763;SDS011;74992;51.072;6.088;2024-01-25T08:35:20;39.20;;;7.88;;
84763;SDS011;74992;51.072;6.088;2024-01-25T08:38:21;40.83;;;8.40;;
84763;SDS011;74992;51.072;6.088;2024-01-25T08:41:22;39.67;;;8.32;;
84763;SDS011;74992;51.072;6.088;2024-01-25T08:44:24;33.88;;;7.43;;
84763;SDS011;74992;51.072;6.088;2024-01-25T08:47:25;30.85;;;8.50;;
84763;SDS011;74992;51.072;6.088;2024-01-25T08:50:26;37.85;;;7.75;;
84763;SDS011;74992;51.072;6.088;2024-01-25T08:53:27;36.10;;;8.50;;
84763;SDS011;74992;51.072;6.088;2024-01-25T08:56:29;41.08;;;7.57;;
84763;SDS011;74992;51.072;6.088;2024-01-25T08:59:31;39.58;;;8.65;;
84763;SDS011;74992;51.072;6.088;2024-01-25T09:02:33;38.90;;;8.52;;
84763;SDS011;74992;51.072;6.088;2024-01-25T09:05:34;35.58;;;7.35;;
84763;SDS011;74992;51.072;6.088;2024-01-25T09:08:39;32.38;;;6.15;;
84763;SDS011;74992;51.072;6.088;2024-01-25T09:11:41;30.83;;;7.63;;
84763;SDS011;74992;51.072;6.088;2024-01-25T09:14:42;42.80;;;7.85;;
84763;SDS011;74992;51.072;6.088;2024-01-25T09:17:43;34.10;;;7.30;;
84763;SDS011;74992;51.072;6.088;2024-01-25T09:20:45;40.20;;;8.30;;
84763;SDS011;74992;51.072;6.088;2024-01-25T09:26:49;39.70;;;7.82;;
84763;SDS011;74992;51.072;6.088;2024-01-25T09:29:50;40.78;;;8.15;;
84763;SDS011;74992;51.072;6.088;2024-01-25T09:32:52;30.88;;;8.40;;
84763;SDS011;74992;51.072;6.088;2024-01-25T09:36:03;33.35;;;8.93;;
84763;SDS011;74992;51.072;6.088;2024-01-25T09:39:04;46.22;;;12.43;;
84763;SDS011;74992;51.072;6.088;2024-01-25T09:42:12;45.35;;;11.25;;
84763;SDS011;74992;51.072;6.088;2024-01-25T09:45:17;34.10;;;10.18;;
84763;SDS011;74992;51.072;6.088;2024-01-25T09:48:20;47.22;;;11.73;;
84763;SDS011;74992;51.072;6.088;2024-01-25T09:51:23;44.92;;;13.65;;
84763;SDS011;74992;51.072;6.088;2024-01-25T09:54:32;41.70;;;11.70;;
84763;SDS011;74992;51.072;6.088;2024-01-25T09:57:37;45.58;;;12.77;;
84763;SDS011;74992;51.072;6.088;2024-01-25T10:00:38;46.45;;;14.32;;
84763;SDS011;74992;51.072;6.088;2024-01-25T10:03:43;52.10;;;16.00;;
84763;SDS011;74992;51.072;6.088;2024-01-25T10:06:48;49.63;;;14.70;;
84763;SDS011;74992;51.072;6.088;2024-01-25T10:09:49;45.70;;;13.98;;
84763;SDS011;74992;51.072;6.088;2024-01-25T10:12:55;46.03;;;13.60;;
84763;SDS011;74992;51.072;6.088;2024-01-25T10:15:56;47.97;;;15.57;;
84763;SDS011;74992;51.072;6.088;2024-01-25T10:18:59;53.03;;;14.25;;
84763;SDS011;74992;51.072;6.088;2024-01-25T10:22:05;54.55;;;14.23;;
84763;SDS011;74992;51.072;6.088;2024-01-25T10:25:12;51.05;;;16.67;;
84763;SDS011;74992;51.072;6.088;2024-01-25T10:28:15;51.97;;;12.95;;
84763;SDS011;74992;51.072;6.088;2024-01-25T10:31:17;45.38;;;15.30;;
84763;SDS011;74992;51.072;6.088;2024-01-25T10:34:22;50.38;;;16.25;;
84763;SDS011;74992;51.072;6.088;2024-01-25T10:37:26;49.35;;;14.50;;
84763;SDS011;74992;51.072;6.088;2024-01-25T10:40:28;37.47;;;14.30;;
84763;SDS011;74992;51.072;6.088;2024-01-25T10:43:30;47.85;;;14.98;;
84763;SDS011;74992;51.072;6.088;2024-01-25T10:46:31;42.55;;;13.48;;
84763;SDS011;74992;51.072;6.088;2024-01-25T10:49:33;48.97;;;14.20;;
84763;SDS011;74992;51.072;6.088;2024-01-25T10:52:39;131.95;;;45.65;;
84763;SDS011;74992;51.072;6.088;2024-01-25T10:55:44;146.90;;;44.40;;
84763;SDS011;74992;51.072;6.088;2024-01-25T10:58:46;72.72;;;22.58;;
84763;SDS011;74992;51.072;6.088;2024-01-25T11:01:48;56.35;;;19.25;;
84763;SDS011;74992;51.072;6.088;2024-01-25T11:04:55;40.40;;;15.30;;
84763;SDS011;74992;51.072;6.088;2024-01-25T11:07:57;51.45;;;18.05;;
84763;SDS011;74992;51.072;6.088;2024-01-25T11:10:58;54.25;;;16.95;;
84763;SDS011;74992;51.072;6.088;2024-01-25T11:14:01;47.05;;;13.98;;
84763;SDS011;74992;51.072;6.088;2024-01-25T11:17:18;45.72;;;15.05;;
84763;SDS011;74992;51.072;6.088;2024-01-25T11:20:21;47.83;;;15.18;;
84763;SDS011;74992;51.072;6.088;2024-01-25T11:23:31;46.42;;;14.60;;
84763;SDS011;74992;51.072;6.088;2024-01-25T11:26:32;45.30;;;13.32;;
84763;SDS011;74992;51.072;6.088;2024-01-25T11:29:34;42.35;;;13.65;;
84763;SDS011;74992;51.072;6.088;2024-01-25T11:32:36;47.67;;;13.88;;
84763;SDS011;74992;51.072;6.088;2024-01-25T11:35:38;34.65;;;14.13;;
84763;SDS011;74992;51.072;6.088;2024-01-25T11:38:41;41.97;;;13.82;;
84763;SDS011;74992;51.072;6.088;2024-01-25T11:41:43;47.58;;;13.68;;
84763;SDS011;74992;51.072;6.088;2024-01-25T11:44:46;36.67;;;13.43;;
84763;SDS011;74992;51.072;6.088;2024-01-25T11:47:48;40.10;;;13.23;;
84763;SDS011;74992;51.072;6.088;2024-01-25T11:50:50;40.08;;;12.63;;
84763;SDS011;74992;51.072;6.088;2024-01-25T11:53:53;40.50;;;13.02;;
84763;SDS011;74992;51.072;6.088;2024-01-25T11:56:55;37.97;;;14.30;;
84763;SDS011;74992;51.072;6.088;2024-01-25T11:59:56;32.63;;;11.82;;
84763;SDS011;74992;51.072;6.088;2024-01-25T12:02:58;35.08;;;11.48;;
84763;SDS011;74992;51.072;6.088;2024-01-25T12:06:00;39.50;;;11.95;;
84763;SDS011;74992;51.072;6.088;2024-01-25T12:09:08;37.90;;;11.23;;
84763;SDS011;74992;51.072;6.088;2024-01-25T12:12:10;40.05;;;13.02;;
84763;SDS011;74992;51.072;6.088;2024-01-25T12:15:12;34.80;;;12.15;;
84763;SDS011;74992;51.072;6.088;2024-01-25T12:18:14;34.03;;;11.02;;
84763;SDS011;74992;51.072;6.088;2024-01-25T12:21:15;33.55;;;10.38;;
84763;SDS011;74992;51.072;6.088;2024-01-25T12:24:16;32.83;;;9.85;;
84763;SDS011;74992;51.072;6.088;2024-01-25T12:27:18;26.75;;;7.93;;
84763;SDS011;74992;51.072;6.088;2024-01-25T12:30:21;29.02;;;9.73;;
84763;SDS011;74992;51.072;6.088;2024-01-25T12:33:22;30.50;;;8.85;;
84763;SDS011;74992;51.072;6.088;2024-01-25T12:36:24;33.88;;;9.10;;
84763;SDS011;74992;51.072;6.088;2024-01-25T12:39:25;29.25;;;8.32;;
84763;SDS011;74992;51.072;6.088;2024-01-25T12:42:26;31.55;;;8.25;;
84763;SDS011;74992;51.072;6.088;2024-01-25T12:45:28;26.17;;;9.07;;
84763;SDS011;74992;51.072;6.088;2024-01-25T12:48:29;26.48;;;8.63;;
84763;SDS011;74992;51.072;6.088;2024-01-25T12:51:31;34.30;;;9.68;;
84763;SDS011;74992;51.072;6.088;2024-01-25T12:54:32;28.88;;;8.65;;
84763;SDS011;74992;51.072;6.088;2024-01-25T12:57:34;32.60;;;8.18;;
84763;SDS011;74992;51.072;6.088;2024-01-25T13:00:35;33.92;;;7.53;;
84763;SDS011;74992;51.072;6.088;2024-01-25T13:03:38;29.85;;;8.13;;
84763;SDS011;74992;51.072;6.088;2024-01-25T13:06:39;29.55;;;7.20;;
84763;SDS011;74992;51.072;6.088;2024-01-25T13:09:42;28.42;;;8.48;;
84763;SDS011;74992;51.072;6.088;2024-01-25T13:12:43;29.13;;;7.55;;
84763;SDS011;74992;51.072;6.088;2024-01-25T13:15:45;25.83;;;6.72;;
84763;SDS011;74992;51.072;6.088;2024-01-25T13:18:46;25.42;;;7.68;;
84763;SDS011;74992;51.072;6.088;2024-01-25T13:21:47;26.98;;;7.38;;
84763;SDS011;74992;51.072;6.088;2024-01-25T13:24:49;29.08;;;7.68;;
84763;SDS011;74992;51.072;6.088;2024-01-25T13:27:51;25.63;;;6.93;;
84763;SDS011;74992;51.072;6.088;2024-01-25T13:30:52;27.65;;;6.43;;
84763;SDS011;74992;51.072;6.088;2024-01-25T13:33:54;22.90;;;5.88;;
84763;SDS011;74992;51.072;6.088;2024-01-25T13:36:55;20.67;;;5.97;;
84763;SDS011;74992;51.072;6.088;2024-01-25T13:39:56;23.73;;;6.78;;
84763;SDS011;74992;51.072;6.088;2024-01-25T13:42:58;26.88;;;6.30;;
84763;SDS011;74992;51.072;6.088;2024-01-25T13:45:59;24.75;;;6.13;;
84763;SDS011;74992;51.072;6.088;2024-01-25T13:49:01;25.80;;;6.07;;
84763;SDS011;74992;51.072;6.088;2024-01-25T13:52:02;20.02;;;5.15;;
84763;SDS011;74992;51.072;6.088;2024-01-25T13:55:04;19.13;;;4.78;;
84763;SDS011;74992;51.072;6.088;2024-01-25T13:58:06;25.98;;;5.72;;
84763;SDS011;74992;51.072;6.088;2024-01-25T14:01:07;21.02;;;5.18;;
84763;SDS011;74992;51.072;6.088;2024-01-25T14:04:08;28.55;;;5.57;;
84763;SDS011;74992;51.072;6.088;2024-01-25T14:07:10;22.92;;;5.32;;
84763;SDS011;74992;51.072;6.088;2024-01-25T14:10:14;18.73;;;5.03;;
84763;SDS011;74992;51.072;6.088;2024-01-25T14:13:17;26.55;;;7.47;;
84763;SDS011;74992;51.072;6.088;2024-01-25T14:16:19;20.75;;;5.03;;
84763;SDS011;74992;51.072;6.088;2024-01-25T14:19:20;18.67;;;4.32;;
84763;SDS011;74992;51.072;6.088;2024-01-25T14:22:21;16.35;;;4.78;;
84763;SDS011;74992;51.072;6.088;2024-01-25T14:25:23;21.92;;;5.20;;
84763;SDS011;74992;51.072;6.088;2024-01-25T14:28:25;18.40;;;5.28;;
84763;SDS011;74992;51.072;6.088;2024-01-25T14:31:26;23.90;;;4.97;;
84763;SDS011;74992;51.072;6.088;2024-01-25T14:34:27;22.33;;;5.72;;
84763;SDS011;74992;51.072;6.088;2024-01-25T14:37:29;23.80;;;6.45;;
84763;SDS011;74992;51.072;6.088;2024-01-25T14:43:35;23.48;;;5.32;;
84763;SDS011;74992;51.072;6.088;2024-01-25T14:46:39;23.25;;;5.90;;
84763;SDS011;74992;51.072;6.088;2024-01-25T14:49:44;20.17;;;5.20;;
84763;SDS011;74992;51.072;6.088;2024-01-25T14:52:45;24.58;;;5.82;;
84763;SDS011;74992;51.072;6.088;2024-01-25T14:55:47;21.40;;;5.60;;
84763;SDS011;74992;51.072;6.088;2024-01-25T14:58:48;27.20;;;8.07;;
84763;SDS011;74992;51.072;6.088;2024-01-25T15:01:50;24.25;;;4.90;;
84763;SDS011;74992;51.072;6.088;2024-01-25T15:04:51;23.42;;;4.70;;
84763;SDS011;74992;51.072;6.088;2024-01-25T15:07:52;21.75;;;4.20;;
84763;SDS011;74992;51.072;6.088;2024-01-25T15:10:54;22.63;;;5.20;;
84763;SDS011;74992;51.072;6.088;2024-01-25T15:13:55;17.85;;;4.63;;
84763;SDS011;74992;51.072;6.088;2024-01-25T15:16:56;20.67;;;4.72;;
84763;SDS011;74992;51.072;6.088;2024-01-25T15:19:58;35.35;;;9.07;;
84763;SDS011;74992;51.072;6.088;2024-01-25T15:22:59;40.35;;;9.80;;
84763;SDS011;74992;51.072;6.088;2024-01-25T15:26:02;25.02;;;6.88;;
84763;SDS011;74992;51.072;6.088;2024-01-25T15:29:04;24.10;;;5.57;;
84763;SDS011;74992;51.072;6.088;2024-01-25T15:32:06;26.05;;;5.40;;
84763;SDS011;74992;51.072;6.088;2024-01-25T15:35:07;20.45;;;5.80;;
84763;SDS011;74992;51.072;6.088;2024-01-25T15:38:09;24.15;;;5.60;;
84763;SDS011;74992;51.072;6.088;2024-01-25T15:41:18;22.70;;;4.70;;
84763;SDS011;74992;51.072;6.088;2024-01-25T15:44:21;23.63;;;4.05;;
84763;SDS011;74992;51.072;6.088;2024-01-25T15:47:23;21.25;;;4.93;;
84763;SDS011;74992;51.072;6.088;2024-01-25T15:50:24;16.80;;;5.03;;
84763;SDS011;74992;51.072;6.088;2024-01-25T15:53:27;24.75;;;4.65;;
84763;SDS011;74992;51.072;6.088;2024-01-25T15:56:28;18.67;;;4.95;;
84763;SDS011;74992;51.072;6.088;2024-01-25T15:59:30;16.08;;;4.63;;
84763;SDS011;74992;51.072;6.088;2024-01-25T16:02:32;26.15;;;8.23;;
84763;SDS011;74992;51.072;6.088;2024-01-25T16:05:33;34.47;;;13.55;;
84763;SDS011;74992;51.072;6.088;2024-01-25T16:08:36;27.40;;;8.25;;
84763;SDS011;74992;51.072;6.088;2024-01-25T16:11:37;20.75;;;7.80;;
84763;SDS011;74992;51.072;6.088;2024-01-25T16:14:40;34.55;;;13.07;;
84763;SDS011;74992;51.072;6.088;2024-01-25T16:17:43;22.75;;;10.35;;
84763;SDS011;74992;51.072;6.088;2024-01-25T16:20:44;18.73;;;5.55;;
84763;SDS011;74992;51.072;6.088;2024-01-25T16:23:46;19.50;;;5.40;;
84763;SDS011;74992;51.072;6.088;2024-01-25T16:26:47;14.35;;;5.38;;
84763;SDS011;74992;51.072;6.088;2024-01-25T16:29:49;16.17;;;4.75;;
84763;SDS011;74992;51.072;6.088;2024-01-25T16:32:50;18.42;;;6.20;;
84763;SDS011;74992;51.072;6.088;2024-01-25T16:35:52;20.38;;;7.05;;
84763;SDS011;74992;51.072;6.088;2024-01-25T16:38:53;17.63;;;6.50;;
84763;SDS011;74992;51.072;6.088;2024-01-25T16:41:55;27.33;;;10.63;;
84763;SDS011;74992;51.072;6.088;2024-01-25T16:44:56;28.55;;;8.90;;
84763;SDS011;74992;51.072;6.088;2024-01-25T16:47:58;14.73;;;5.13;;
84763;SDS011;74992;51.072;6.088;2024-01-25T16:50:59;34.95;;;15.25;;
84763;SDS011;74992;51.072;6.088;2024-01-25T16:54:01;16.02;;;5.18;;
84763;SDS011;74992;51.072;6.088;2024-01-25T16:57:02;18.27;;;6.72;;
84763;SDS011;74992;51.072;6.088;2024-01-25T17:00:04;18.60;;;8.90;;
84763;SDS011;74992;51.072;6.088;2024-01-25T17:03:07;18.08;;;5.75;;
84763;SDS011;74992;51.072;6.088;2024-01-25T17:06:09;14.60;;;5.25;;
84763;SDS011;74992;51.072;6.088;2024-01-25T17:09:11;20.27;;;7.05;;
84763;SDS011;74992;51.072;6.088;2024-01-25T17:15:15;21.40;;;7.38;;
84763;SDS011;74992;51.072;6.088;2024-01-25T17:18:17;17.33;;;6.53;;
84763;SDS011;74992;51.072;6.088;2024-01-25T17:21:18;19.75;;;7.03;;
84763;SDS011;74992;51.072;6.088;2024-01-25T17:24:20;18.17;;;6.35;;
84763;SDS011;74992;51.072;6.088;2024-01-25T17:27:21;21.35;;;9.05;;
84763;SDS011;74992;51.072;6.088;2024-01-25T17:30:23;16.15;;;6.25;;
84763;SDS011;74992;51.072;6.088;2024-01-25T17:33:24;16.80;;;8.10;;
84763;SDS011;74992;51.072;6.088;2024-01-25T17:36:26;19.65;;;6.93;;
84763;SDS011;74992;51.072;6.088;2024-01-25T17:39:29;15.77;;;7.10;;
84763;SDS011;74992;51.072;6.088;2024-01-25T17:42:30;23.25;;;9.52;;
84763;SDS011;74992;51.072;6.088;2024-01-25T17:45:32;16.50;;;7.20;;
84763;SDS011;74992;51.072;6.088;2024-01-25T17:48:33;19.80;;;7.85;;
84763;SDS011;74992;51.072;6.088;2024-01-25T17:51:36;17.27;;;8.15;;
84763;SDS011;74992;51.072;6.088;2024-01-25T17:54:37;22.13;;;8.18;;
84763;SDS011;74992;51.072;6.088;2024-01-25T17:57:39;17.77;;;8.85;;
84763;SDS011;74992;51.072;6.088;2024-01-25T18:00:42;18.92;;;7.43;;
84763;SDS011;74992;51.072;6.088;2024-01-25T18:03:44;15.98;;;8.45;;
84763;SDS011;74992;51.072;6.088;2024-01-25T18:06:45;15.57;;;7.53;;
84763;SDS011;74992;51.072;6.088;2024-01-25T18:09:47;14.63;;;8.35;;
84763;SDS011;74992;51.072;6.088;2024-01-25T18:12:50;16.80;;;9.20;;
84763;SDS011;74992;51.072;6.088;2024-01-25T18:15:52;20.60;;;10.27;;
84763;SDS011;74992;51.072;6.088;2024-01-25T18:18:55;18.17;;;10.10;;
84763;SDS011;74992;51.072;6.088;2024-01-25T18:21:56;15.95;;;9.60;;
84763;SDS011;74992;51.072;6.088;2024-01-25T18:24:58;16.25;;;10.60;;